Barney, North Dakota
Current Conditions -  °F | °C
As of 3:35 AM on Monday 24 Nov 2014 (Local Time) from KBWP Reporting Station
Overcast Overcast  
Wind Chill:   Ceiling: 1800
Heat Index: 16°   Visibility: 2mi
Dew Point: 12°   Wind: 15mph
Humidity: 86%   Direction: 330°NNW
Pressure: 29.57"   Gusts: 28mph
Location:  46.27°N, 97°W
Report Text: KBWP 240935Z AUTO 33013G24KT 2SM SCT010 BKN018 OVC032 M09/M11 A2957 RMK AO1
Loading
Personal Weather Stations






























Interactive Weather Map New forecast layout! Learn more

10-Day Weather Forecast

Advertisements
Track Severe Weather on mobile